createdAt,value
2017-08-02T00:01:56.483Z,98.90
2017-08-02T00:04:25.599Z,99.20
2017-08-02T00:06:54.657Z,99.00
2017-08-02T00:09:22.955Z,98.70
2017-08-02T00:11:52.066Z,98.70
2017-08-02T00:14:20.354Z,98.90
2017-08-02T00:16:48.646Z,99.10
2017-08-02T00:21:47.255Z,99.50
2017-08-02T00:24:16.303Z,99.50
2017-08-02T00:26:44.627Z,99.50
2017-08-02T00:29:12.914Z,99.10
2017-08-02T00:31:41.202Z,99.30
2017-08-02T00:34:09.537Z,99.30
2017-08-02T00:36:37.821Z,99.90
2017-08-02T00:39:06.113Z,99.90
2017-08-02T00:41:35.938Z,99.90
2017-08-02T00:44:04.236Z,99.90
2017-08-02T00:46:32.515Z,99.90
2017-08-02T00:49:01.624Z,99.90
2017-08-02T00:53:59.807Z,99.90
2017-08-02T00:56:28.157Z,99.90
2017-08-02T00:58:56.466Z,99.60
2017-08-02T01:01:24.761Z,99.30
2017-08-02T01:03:54.631Z,99.10
2017-08-02T01:06:22.934Z,99.20
2017-08-02T01:08:52.753Z,99.40
2017-08-02T01:11:21.091Z,99.40
2017-08-02T01:13:49.775Z,99.70
2017-08-02T01:16:18.844Z,99.90
2017-08-02T01:18:47.559Z,99.90
2017-08-02T01:21:15.843Z,99.90
2017-08-02T01:26:14.222Z,99.90
2017-08-02T01:28:43.647Z,99.90
2017-08-02T01:31:12.696Z,99.90
2017-08-02T01:33:41.810Z,99.90
2017-08-02T01:36:10.102Z,99.90
2017-08-02T01:38:38.386Z,99.90
2017-08-02T01:41:08.209Z,99.90
2017-08-02T01:43:37.995Z,99.90
2017-08-02T01:46:07.055Z,99.90
2017-08-02T01:48:36.144Z,99.90
2017-08-02T01:51:04.422Z,99.70
2017-08-02T01:53:33.475Z,99.90
2017-08-02T01:56:01.795Z,99.50
2017-08-02T01:58:31.219Z,99.50
2017-08-02T02:00:59.503Z,99.50
2017-08-02T02:03:27.847Z,99.40
2017-08-02T02:05:56.138Z,99.50
2017-08-02T02:08:25.194Z,99.30
2017-08-02T02:10:54.312Z,99.00
2017-08-02T02:13:23.385Z,99.00
2017-08-02T02:18:21.638Z,99.10
2017-08-02T02:20:49.923Z,99.10
2017-08-02T02:23:18.218Z,99.20
2017-08-02T02:25:46.551Z,99.10
2017-08-02T02:28:14.839Z,98.80
2017-08-02T02:30:44.632Z,98.60
2017-08-02T02:33:12.968Z,98.60
2017-08-02T02:35:41.264Z,98.70
2017-08-02T02:38:09.566Z,98.80
2017-08-02T02:40:39.067Z,99.10
2017-08-02T02:43:07.366Z,99.20
2017-08-02T02:45:35.651Z,99.10
2017-08-02T02:48:05.136Z,99.10
2017-08-02T02:50:34.190Z,99.00
2017-08-02T02:53:03.247Z,99.10
2017-08-02T02:58:01.483Z,99.20
2017-08-02T03:00:29.766Z,99.30
2017-08-02T03:02:58.271Z,99.30
2017-08-02T03:05:27.682Z,99.50
2017-08-02T03:07:55.999Z,99.60
2017-08-02T03:10:25.063Z,99.40
2017-08-02T03:12:54.158Z,99.30
2017-08-02T03:15:22.475Z,98.90
2017-08-02T03:17:50.840Z,98.90
2017-08-02T03:20:19.127Z,98.80
2017-08-02T03:22:48.920Z,98.90
2017-08-02T03:25:18.010Z,99.20
2017-08-02T03:27:47.436Z,99.00
2017-08-02T03:30:15.723Z,98.90
2017-08-02T03:32:44.056Z,99.00
2017-08-02T03:35:12.343Z,98.90
2017-08-02T03:37:41.403Z,99.00
2017-08-02T03:43:13.659Z,98.90
2017-08-02T03:45:42.278Z,98.80
2017-08-02T03:48:11.327Z,98.90
2017-08-02T03:50:39.611Z,98.60
2017-08-02T03:53:08.702Z,98.90
2017-08-02T03:55:36.989Z,98.80
2017-08-02T03:58:05.274Z,98.90
2017-08-02T04:00:34.735Z,99.00
2017-08-02T04:03:03.018Z,99.20
2017-08-02T04:05:31.298Z,99.20
2017-08-02T04:07:59.633Z,99.10
2017-08-02T04:10:28.700Z,99.00
2017-08-02T04:12:57.015Z,99.30
2017-08-02T04:15:26.488Z,99.10
2017-08-02T04:17:54.785Z,99.00
2017-08-02T04:20:23.842Z,99.20
2017-08-02T04:22:53.319Z,99.00
2017-08-02T04:25:21.607Z,98.80
2017-08-02T04:27:50.653Z,99.30
2017-08-02T04:30:19.407Z,98.90
2017-08-02T04:32:47.710Z,98.90
2017-08-02T04:35:16.128Z,98.90
2017-08-02T04:37:44.466Z,99.00
2017-08-02T04:40:12.754Z,99.00
2017-08-02T04:42:41.030Z,99.00
2017-08-02T04:45:11.008Z,99.00
2017-08-02T04:47:39.291Z,99.10
2017-08-02T04:50:07.575Z,99.10
2017-08-02T04:52:36.690Z,99.20
2017-08-02T04:55:05.735Z,99.20
2017-08-02T04:57:34.794Z,99.10
2017-08-02T05:00:04.538Z,99.00
2017-08-02T05:02:33.582Z,99.20
2017-08-02T05:05:02.998Z,99.00
2017-08-02T05:07:32.090Z,99.40
2017-08-02T05:10:01.515Z,99.20
2017-08-02T05:12:29.802Z,99.30
2017-08-02T05:14:58.154Z,99.30
2017-08-02T05:17:26.459Z,99.50
2017-08-02T05:19:56.483Z,99.40
2017-08-02T05:22:24.822Z,99.50
2017-08-02T05:24:53.127Z,99.60
2017-08-02T05:29:50.978Z,99.50
2017-08-02T05:32:19.265Z,99.50
2017-08-02T05:34:47.555Z,99.80
2017-08-02T05:37:16.654Z,99.90
2017-08-02T05:39:44.939Z,99.90
2017-08-02T05:42:14.735Z,99.90
2017-08-02T05:44:43.107Z,99.90
2017-08-02T05:47:11.389Z,99.90
2017-08-02T05:49:41.178Z,99.90
2017-08-02T05:52:09.521Z,99.90
2017-08-02T05:54:37.804Z,99.90
2017-08-02T05:57:06.088Z,99.90
2017-08-02T05:59:35.571Z,99.90
2017-08-02T06:02:04.622Z,99.90
2017-08-02T06:04:32.914Z,99.90
2017-08-02T06:07:02.707Z,99.90
2017-08-02T06:09:32.498Z,99.90
2017-08-02T06:12:01.555Z,99.90
2017-08-02T06:14:30.310Z,99.90
2017-08-02T06:16:59.390Z,99.90
2017-08-02T06:19:27.719Z,99.90
2017-08-02T06:21:56.745Z,99.90
2017-08-02T06:24:25.040Z,99.90
2017-08-02T06:26:53.331Z,99.90
2017-08-02T06:29:21.938Z,99.90
2017-08-02T06:31:50.994Z,99.90
2017-08-02T06:34:19.278Z,99.90
2017-08-02T06:36:47.611Z,99.90
2017-08-02T06:39:15.949Z,99.90
2017-08-02T06:41:44.660Z,99.90
2017-08-02T06:44:13.891Z,99.90
2017-08-02T06:46:42.174Z,99.90
2017-08-02T06:49:10.463Z,99.90
2017-08-02T06:51:38.786Z,99.90
2017-08-02T06:54:07.074Z,99.90
2017-08-02T06:56:35.363Z,99.90
2017-08-02T06:59:04.482Z,99.90
2017-08-02T07:01:33.530Z,99.90
2017-08-02T07:04:02.578Z,99.90
2017-08-02T07:06:31.310Z,99.90
2017-08-02T07:11:29.137Z,99.90
2017-08-02T07:13:59.004Z,99.90
2017-08-02T07:16:27.298Z,99.90
2017-08-02T07:18:55.602Z,99.90
2017-08-02T07:21:23.930Z,99.90
2017-08-02T07:23:52.230Z,99.90
2017-08-02T07:26:20.514Z,99.90
2017-08-02T07:28:49.990Z,99.90
2017-08-02T07:31:18.272Z,99.90
2017-08-02T07:36:16.532Z,99.90
2017-08-02T07:38:44.828Z,99.90
2017-08-02T07:41:14.263Z,99.90
2017-08-02T07:43:42.614Z,99.90
2017-08-02T07:46:10.903Z,99.50
2017-08-02T07:48:40.327Z,98.90
2017-08-02T07:51:08.941Z,99.10
2017-08-02T07:53:38.731Z,98.70
2017-08-02T07:58:37.330Z,97.80
2017-08-02T08:01:05.615Z,97.70
2017-08-02T08:03:33.899Z,96.90
2017-08-02T08:06:02.564Z,96.00
2017-08-02T08:08:31.618Z,95.40
2017-08-02T08:10:59.924Z,95.30
2017-08-02T08:13:28.627Z,95.20
2017-08-02T08:15:58.441Z,95.00
2017-08-02T08:18:26.740Z,94.30
2017-08-02T08:20:55.088Z,94.90
2017-08-02T08:23:24.136Z,94.60
2017-08-02T08:25:53.188Z,93.60
2017-08-02T08:28:22.278Z,93.50
2017-08-02T08:33:20.492Z,93.00
2017-08-02T08:35:49.123Z,93.20
2017-08-02T08:38:17.407Z,93.20
2017-08-02T08:40:45.700Z,92.00
2017-08-02T08:43:14.833Z,92.40
2017-08-02T08:45:43.123Z,92.30
2017-08-02T08:48:11.402Z,92.10
2017-08-02T08:50:39.744Z,90.20
2017-08-02T08:53:08.031Z,90.20
2017-08-02T08:55:36.315Z,90.40
2017-08-02T08:58:04.638Z,90.00
2017-08-02T09:00:33.686Z,90.30
2017-08-02T09:03:02.759Z,87.60
2017-08-02T09:08:01.392Z,87.00
2017-08-02T09:10:29.697Z,85.80
2017-08-02T09:12:58.432Z,86.80
2017-08-02T09:17:56.260Z,83.50
2017-08-02T09:20:25.350Z,83.50
2017-08-02T09:22:53.627Z,80.90
2017-08-02T09:25:21.908Z,81.70
2017-08-02T09:27:51.002Z,79.20
2017-08-02T09:30:19.278Z,78.50
2017-08-02T09:32:47.559Z,78.10
2017-08-02T09:35:17.771Z,73.90
2017-08-02T09:37:46.058Z,73.30
2017-08-02T09:40:14.343Z,72.10
2017-08-02T09:42:42.675Z,71.30
2017-08-02T09:45:11.715Z,67.00
2017-08-02T09:47:40.755Z,66.60
2017-08-02T09:50:09.082Z,65.50
2017-08-02T09:52:38.128Z,65.40
2017-08-02T09:55:06.399Z,64.50
2017-08-02T10:00:04.211Z,61.90
2017-08-02T10:02:32.492Z,59.70
2017-08-02T10:05:00.822Z,61.60
2017-08-02T10:07:30.611Z,59.30
2017-08-02T10:09:58.896Z,58.50
2017-08-02T10:12:27.222Z,60.40
2017-08-02T10:14:55.491Z,60.00
2017-08-02T10:17:23.783Z,59.80
2017-08-02T10:19:52.367Z,64.70
2017-08-02T10:22:21.411Z,61.20
2017-08-02T10:24:50.451Z,59.70
2017-08-02T10:27:19.551Z,59.20
2017-08-02T10:29:47.830Z,64.00
2017-08-02T10:32:16.109Z,60.60
2017-08-02T10:34:45.961Z,59.90
2017-08-02T10:37:14.270Z,59.40
2017-08-02T10:39:42.540Z,60.20
2017-08-02T10:42:10.853Z,60.50
2017-08-02T10:44:39.131Z,59.10
2017-08-02T10:47:07.416Z,56.40
2017-08-02T10:49:37.159Z,58.80
2017-08-02T10:52:05.426Z,59.40
2017-08-02T10:54:35.214Z,61.50
2017-08-02T10:57:03.531Z,58.10
2017-08-02T10:59:31.830Z,58.20
2017-08-02T11:02:00.101Z,58.50
2017-08-02T11:04:28.777Z,56.10
2017-08-02T11:06:57.462Z,56.30
2017-08-02T11:09:25.732Z,57.60
2017-08-02T11:14:24.347Z,56.40
2017-08-02T11:16:53.752Z,55.80
2017-08-02T11:19:22.379Z,57.70
2017-08-02T11:21:50.646Z,59.50
2017-08-02T11:24:18.919Z,56.90
2017-08-02T11:26:47.234Z,57.30
2017-08-02T11:29:16.653Z,56.70
2017-08-02T11:31:44.924Z,57.10
2017-08-02T11:34:13.239Z,57.20
2017-08-02T11:36:43.020Z,57.10
2017-08-02T11:39:12.063Z,55.70
2017-08-02T11:41:40.403Z,55.20
2017-08-02T11:44:10.177Z,54.40
2017-08-02T11:46:39.214Z,55.10
2017-08-02T11:49:08.600Z,55.20
2017-08-02T11:51:37.271Z,53.60
2017-08-02T11:54:05.570Z,54.60
2017-08-02T11:56:35.026Z,55.60
2017-08-02T11:59:03.691Z,55.80
2017-08-02T12:01:32.735Z,54.90
2017-08-02T12:04:01.836Z,56.50
2017-08-02T12:06:30.165Z,57.00
2017-08-02T12:08:58.463Z,56.10
2017-08-02T12:11:26.796Z,54.50
2017-08-02T12:13:55.065Z,58.30
2017-08-02T12:16:23.339Z,58.70
2017-08-02T12:18:51.692Z,57.10
2017-08-02T12:21:21.096Z,58.90
2017-08-02T12:23:49.363Z,59.10
2017-08-02T12:26:18.115Z,56.00
2017-08-02T12:28:47.153Z,53.30
2017-08-02T12:31:16.215Z,54.10
2017-08-02T12:33:45.610Z,52.50
2017-08-02T12:36:15.403Z,51.60
2017-08-02T12:38:43.671Z,51.00
2017-08-02T12:41:12.315Z,51.60
2017-08-02T12:43:41.722Z,51.70
2017-08-02T12:46:09.991Z,51.60
2017-08-02T12:48:39.095Z,52.00
2017-08-02T12:51:08.132Z,51.80
2017-08-02T12:53:37.172Z,51.80
2017-08-02T12:56:06.650Z,52.20
2017-08-02T12:58:34.914Z,55.10
2017-08-02T13:01:03.225Z,55.20
2017-08-02T13:06:01.456Z,55.20
2017-08-02T13:08:29.753Z,54.00
2017-08-02T13:10:58.115Z,54.80
2017-08-02T13:13:27.203Z,57.20
2017-08-02T13:15:55.491Z,57.10
2017-08-02T13:18:25.326Z,56.50
2017-08-02T13:20:53.600Z,53.70
2017-08-02T13:23:23.374Z,54.70
2017-08-02T13:25:51.692Z,55.00
2017-08-02T13:28:19.962Z,53.80
2017-08-02T13:30:48.250Z,53.40
2017-08-02T13:33:16.593Z,53.60
2017-08-02T13:35:44.882Z,52.60
2017-08-02T13:38:13.155Z,53.20
2017-08-02T13:40:42.612Z,53.50
2017-08-02T13:43:10.882Z,53.10
2017-08-02T13:48:09.468Z,54.20
2017-08-02T13:53:07.242Z,55.20
2017-08-02T14:00:35.626Z,55.70
2017-08-02T14:03:05.773Z,56.70
2017-08-02T14:05:34.043Z,57.00
2017-08-02T14:08:02.330Z,56.40
2017-08-02T14:10:31.820Z,58.00
2017-08-02T14:13:00.102Z,57.80
2017-08-02T14:15:28.417Z,59.20
2017-08-02T14:17:58.262Z,57.60
2017-08-02T14:20:26.539Z,58.50
2017-08-02T14:22:55.575Z,58.10
2017-08-02T14:25:25.031Z,59.20
2017-08-02T14:30:23.195Z,58.40
2017-08-02T14:32:52.982Z,57.50
2017-08-02T14:35:21.659Z,58.20
2017-08-02T14:37:49.955Z,57.50
2017-08-02T14:40:19.042Z,58.40
2017-08-02T14:42:47.331Z,60.20
2017-08-02T14:45:15.607Z,61.80
2017-08-02T14:47:43.943Z,63.20
2017-08-02T14:50:12.214Z,63.00
2017-08-02T14:55:10.022Z,66.20
2017-08-02T14:57:38.302Z,67.90
2017-08-02T15:02:37.017Z,73.10
2017-08-02T15:05:06.082Z,74.30
2017-08-02T15:07:34.770Z,74.40
2017-08-02T15:12:33.444Z,74.90
2017-08-02T15:15:01.750Z,78.20
2017-08-02T15:20:01.144Z,81.70
2017-08-02T15:22:29.448Z,80.60
2017-08-02T15:24:58.985Z,81.00
2017-08-02T15:27:27.280Z,83.20
2017-08-02T15:29:55.548Z,82.50
2017-08-02T15:32:23.867Z,82.40
2017-08-02T15:34:52.149Z,87.00
2017-08-02T15:37:21.935Z,86.60
2017-08-02T15:39:50.268Z,88.20
2017-08-02T15:42:18.551Z,88.60
2017-08-02T15:44:46.826Z,89.00
2017-08-02T15:47:16.962Z,90.00
2017-08-02T15:49:45.247Z,88.80
2017-08-02T15:52:15.026Z,88.90
2017-08-02T15:54:43.626Z,88.90
2017-08-02T15:57:12.291Z,88.80
2017-08-02T15:59:41.698Z,88.50
2017-08-02T16:02:10.795Z,89.10
2017-08-02T16:04:39.066Z,87.30
2017-08-02T16:07:07.339Z,87.30
2017-08-02T16:09:35.802Z,89.10
2017-08-02T16:12:05.213Z,88.10
2017-08-02T16:14:33.494Z,88.80
2017-08-02T16:17:01.834Z,88.30
2017-08-02T16:19:30.129Z,89.30
2017-08-02T16:21:58.426Z,90.00
2017-08-02T16:24:26.759Z,90.10
2017-08-02T16:26:56.167Z,90.40
2017-08-02T16:29:24.438Z,90.50
2017-08-02T16:31:53.070Z,90.00
2017-08-02T16:36:51.223Z,90.30
2017-08-02T16:39:20.323Z,90.40
2017-08-02T16:44:18.498Z,90.90
2017-08-02T16:49:16.622Z,91.10
2017-08-02T16:51:44.899Z,91.00
2017-08-02T16:54:13.246Z,91.00
2017-08-02T16:56:41.911Z,91.30
2017-08-02T16:59:10.187Z,91.60
2017-08-02T17:01:39.270Z,91.10
2017-08-02T17:04:07.547Z,91.00
2017-08-02T17:06:35.822Z,91.00
2017-08-02T17:09:04.159Z,91.00
2017-08-02T17:14:02.730Z,90.20
2017-08-02T17:16:31.329Z,90.80
2017-08-02T17:19:01.130Z,91.00
2017-08-02T17:21:30.186Z,90.60
2017-08-02T17:23:58.539Z,90.50
2017-08-02T17:26:26.818Z,90.90
2017-08-02T17:28:56.597Z,90.70
2017-08-02T17:31:24.945Z,91.10
2017-08-02T17:33:54.734Z,91.10
2017-08-02T17:36:23.026Z,91.50
2017-08-02T17:41:21.248Z,91.00
2017-08-02T17:46:19.453Z,88.40
2017-08-02T17:48:47.736Z,88.50
2017-08-02T17:51:16.008Z,88.10
2017-08-02T17:53:44.484Z,87.70
2017-08-02T17:56:12.760Z,86.70
2017-08-02T18:01:11.350Z,86.20
2017-08-02T18:03:40.026Z,87.70
2017-08-02T18:06:09.444Z,87.30
2017-08-02T18:08:38.534Z,87.30
2017-08-02T18:11:06.804Z,88.00
2017-08-02T18:13:35.195Z,88.40
2017-08-02T18:16:04.720Z,87.30
2017-08-02T18:21:03.041Z,88.70
2017-08-02T18:23:31.522Z,88.10
2017-08-02T18:25:59.955Z,89.70
2017-08-02T18:28:28.314Z,90.10
2017-08-02T18:33:28.322Z,91.00
2017-08-02T18:35:56.607Z,91.50
2017-08-02T18:38:26.498Z,92.20
2017-08-02T18:40:54.833Z,93.00
2017-08-02T18:43:23.876Z,93.20
2017-08-02T18:45:52.962Z,94.20
2017-08-02T18:48:22.011Z,94.50
2017-08-02T18:50:50.289Z,94.50
2017-08-02T18:53:18.920Z,94.80
2017-08-02T18:55:48.344Z,95.20
2017-08-02T18:58:16.619Z,95.70
2017-08-02T19:00:45.751Z,95.70
2017-08-02T19:03:15.201Z,96.50
2017-08-02T19:05:43.512Z,97.30
2017-08-02T19:08:11.851Z,97.60
2017-08-02T19:10:40.205Z,97.30
2017-08-02T19:13:09.641Z,97.80
2017-08-02T19:15:38.431Z,97.80
2017-08-02T19:18:08.275Z,97.70
2017-08-02T19:20:37.755Z,98.00
2017-08-02T19:23:06.802Z,98.30
2017-08-02T19:25:35.916Z,98.80
2017-08-02T19:28:04.244Z,98.90
2017-08-02T19:30:34.181Z,98.10
2017-08-02T19:33:02.601Z,98.70
2017-08-02T19:38:00.669Z,98.10
2017-08-02T19:40:30.514Z,98.70
2017-08-02T19:42:58.826Z,98.50
2017-08-02T19:45:28.805Z,98.90
2017-08-02T19:47:57.189Z,99.00
2017-08-02T19:50:25.584Z,99.30
2017-08-02T19:52:54.019Z,99.30
2017-08-02T19:55:23.836Z,99.10
2017-08-02T20:00:22.206Z,99.10
2017-08-02T20:02:50.496Z,98.50
2017-08-02T20:05:18.784Z,98.50
2017-08-02T20:07:48.619Z,99.50
2017-08-02T20:10:18.407Z,99.90
2017-08-02T20:15:16.283Z,99.90
2017-08-02T20:17:44.567Z,99.90
2017-08-02T20:20:13.244Z,99.90
2017-08-02T20:25:11.090Z,99.90
2017-08-02T20:27:39.428Z,99.90
2017-08-02T20:30:07.783Z,99.90
2017-08-02T20:32:37.242Z,99.90
2017-08-02T20:37:35.583Z,99.90
2017-08-02T20:40:03.950Z,99.90
2017-08-02T20:42:32.323Z,99.90
2017-08-02T20:45:01.441Z,99.90
2017-08-02T20:47:29.805Z,99.90
2017-08-02T20:49:58.589Z,99.90
2017-08-02T20:52:26.885Z,99.90
2017-08-02T20:54:55.979Z,99.90
2017-08-02T20:57:24.368Z,99.90
2017-08-02T20:59:53.783Z,99.90
2017-08-02T21:02:22.065Z,99.90
2017-08-02T21:04:50.490Z,99.90
2017-08-02T21:07:18.854Z,99.90
2017-08-02T21:09:47.184Z,99.90
2017-08-02T21:12:15.515Z,99.90
2017-08-02T21:14:44.942Z,99.90
2017-08-02T21:17:13.283Z,99.90
2017-08-02T21:19:41.627Z,99.90
2017-08-02T21:22:09.911Z,99.90
2017-08-02T21:24:38.195Z,99.90
2017-08-02T21:27:07.436Z,99.90
2017-08-02T21:29:37.223Z,99.90
2017-08-02T21:32:05.517Z,99.90
2017-08-02T21:34:33.882Z,99.90
2017-08-02T21:37:02.183Z,99.90
2017-08-02T21:39:30.479Z,99.90
2017-08-02T21:44:28.400Z,99.90
2017-08-02T21:46:56.691Z,99.90
2017-08-02T21:49:26.554Z,99.90
2017-08-02T21:51:55.597Z,99.90
2017-08-02T21:54:24.659Z,99.90
2017-08-02T21:56:53.379Z,99.90
2017-08-02T21:59:21.677Z,99.90
2017-08-02T22:01:49.966Z,99.90
2017-08-02T22:04:20.082Z,99.90
2017-08-02T22:06:48.380Z,99.90
2017-08-02T22:09:17.079Z,99.90
2017-08-02T22:11:45.434Z,99.90
2017-08-02T22:14:14.119Z,99.90
2017-08-02T22:19:39.975Z,99.90
2017-08-02T22:22:09.762Z,99.90
2017-08-02T22:24:38.438Z,99.90
2017-08-02T22:32:06.136Z,99.90
2017-08-02T22:34:34.770Z,99.90
2017-08-02T22:37:04.574Z,99.90
2017-08-02T22:39:33.275Z,99.90
2017-08-02T22:42:02.022Z,99.90
2017-08-02T22:44:30.727Z,99.90
2017-08-02T22:46:59.807Z,99.90
2017-08-02T22:49:28.173Z,99.90
2017-08-02T22:51:57.230Z,99.90
2017-08-02T22:56:55.763Z,99.90
2017-08-02T22:59:25.555Z,99.90
2017-08-02T23:01:53.839Z,99.90
2017-08-02T23:04:22.171Z,99.90
2017-08-02T23:09:19.979Z,99.90
2017-08-02T23:11:48.340Z,99.90
2017-08-02T23:14:16.639Z,99.90
2017-08-02T23:16:45.329Z,99.90
2017-08-02T23:19:14.699Z,99.90
2017-08-02T23:21:42.983Z,99.90
2017-08-02T23:26:41.263Z,99.90
2017-08-02T23:29:09.546Z,99.90
2017-08-02T23:31:37.839Z,99.90
2017-08-02T23:34:06.187Z,99.90
2017-08-02T23:36:35.239Z,99.90
2017-08-02T23:39:03.535Z,99.90
2017-08-02T23:41:31.880Z,99.90
2017-08-02T23:44:01.341Z,99.90
2017-08-02T23:46:29.641Z,99.90
2017-08-02T23:51:27.502Z,99.90
2017-08-02T23:53:55.787Z,99.90
2017-08-02T23:56:24.119Z,99.90
2017-08-02T23:58:52.417Z,99.90
